Time;durP1;ratioP1;P1;durP2;ratioP2;P2;SDS_P1;SDS_P2;PMS_P1;PMS_P2;Temp;Humidity;BMP_temperature;BMP_pressure;BME280_temperature;BME280_humidity;BME280_pressure;Samples;Min_cycle;Max_cycle;Signal;HPM_P1;HPM_P2
2022/09/29 00:01:49;;;;;;;;;;;;;;;;;;4912409;29;19941;-33
2022/09/29 00:04:14;;;;;;;;;;;;;;;;;;4915049;29;19930;-33
2022/09/29 00:06:39;;;;;;;;;;;;;;;;;;4912806;29;19975;-33
2022/09/29 00:09:04;;;;;;;;;;;;;;;;;;4915425;29;20005;-32
2022/09/29 00:11:29;;;;;;;;;;;;;;;;;;4918349;29;19919;-33
2022/09/29 00:13:54;;;;;;;;;;;;;;;;;;4915087;29;20389;-32
2022/09/29 00:16:19;;;;;;;;;;;;;;;;;;4915790;29;19947;-32
2022/09/29 00:18:45;;;;;;;;;;;;;;;;;;4913033;29;20407;-33
2022/09/29 00:21:10;;;;;;;;;;;;;;;;;;4914051;29;19919;-32
2022/09/29 00:23:35;;;;;;;;;;;;;;;;;;4915420;29;20328;-32
2022/09/29 00:26:00;;;;;;;;;;;;;;;;;;4912120;29;19971;-32
2022/09/29 00:28:25;;;;;;;;;;;;;;;;;;4913392;29;20208;-33
2022/09/29 00:30:51;;;;;;;;;;;;;;;;;;4912010;29;19926;-32
2022/09/29 00:33:16;;;;;;;;;;;;;;;;;;4915816;29;20383;-33
2022/09/29 00:35:41;;;;;;;;;;;;;;;;;;4913617;29;19927;-33
2022/09/29 00:38:06;;;;;;;;;;;;;;;;;;4919588;28;19918;-32
2022/09/29 00:40:33;;;;;;;;;;;;;;;;;;4916816;29;19974;-32
2022/09/29 00:42:58;;;;;;;;;;;;;;;;;;4917190;29;20034;-32
2022/09/29 00:45:23;;;;;;;;;;;;;;;;;;4913712;29;20006;-33
2022/09/29 00:47:49;;;;;;;;;;;;;;;;;;4921525;28;19930;-32
2022/09/29 00:50:14;;;;;;;;;;;;;;;;;;4919673;29;20085;-32
2022/09/29 00:52:39;;;;;;;;;;;;;;;;;;4919524;29;19953;-32
2022/09/29 00:55:04;;;;;;;;;;;;;;;;;;4914551;29;19919;-32
2022/09/29 00:57:29;;;;;;;;;;;;;;;;;;4916019;29;19979;-33
2022/09/29 00:59:54;;;;;;;;;;;;;;;;;;4922200;29;20296;-33
2022/09/29 01:02:20;;;;;;;;;;;;;;;;;;4915366;29;19986;-33
2022/09/29 01:04:45;;;;;;;;;;;;;;;;;;4919251;29;20052;-33
2022/09/29 01:07:10;;;;;;;;;;;;;;;;;;4916796;29;19926;-32
2022/09/29 01:09:36;;;;;;;;;;;;;;;;;;4916989;29;19919;-32
2022/09/29 01:12:01;;;;;;;;;;;;;;;;;;4917564;29;19930;-33
2022/09/29 01:14:26;;;;;;;;;;;;;;;;;;4913151;29;19926;-33
2022/09/29 01:16:51;;;;;;;;;;;;;;;;;;4919059;29;19926;-32
2022/09/29 01:19:17;;;;;;;;;;;;;;;;;;4911097;29;20367;-32
2022/09/29 01:21:43;;;;;;;;;;;;;;;;;;4916305;29;21421;-32
2022/09/29 01:24:08;;;;;;;;;;;;;;;;;;4918407;29;19919;-33
2022/09/29 01:26:33;;;;;;;;;;;;;;;;;;4920850;29;20005;-33
2022/09/29 01:28:58;;;;;;;;;;;;;;;;;;4918703;29;19923;-33
2022/09/29 01:31:23;;;;;;;;;;;;;;;;;;4915915;29;19915;-33
2022/09/29 01:33:48;;;;;;;;;;;;;;;;;;4921620;29;19958;-33
2022/09/29 01:36:13;;;;;;;;;;;;;;;;;;4923569;29;19918;-33
2022/09/29 01:38:39;;;;;;;;;;;;;;;;;;4924274;28;20049;-33
2022/09/29 01:41:04;;;;;;;;;;;;;;;;;;4917970;29;20037;-33
2022/09/29 01:43:29;;;;;;;;;;;;;;;;;;4919420;29;19922;-33
2022/09/29 01:45:54;;;;;;;;;;;;;;;;;;4911395;29;20113;-33
2022/09/29 01:48:19;;;;;;;;;;;;;;;;;;4922878;28;19925;-33
2022/09/29 01:50:44;;;;;;;;;;;;;;;;;;4930591;29;19926;-32
2022/09/29 01:53:10;;;;;;;;;;;;;;;;;;4927312;29;19915;-32
2022/09/29 01:55:35;;;;;;;;;;;;;;;;;;4923304;29;20021;-32
2022/09/29 01:58:00;;;;;;;;;;;;;;;;;;4946953;23;19934;-33
2022/09/29 02:00:30;;;;;;;;;;;;;;;;;;4930367;29;19982;-33
2022/09/29 02:02:55;;;;;;;;;;;;;;;;;;4930851;29;19966;-32
2022/09/29 02:05:20;;;;;;;;;;;;;;;;;;4941067;29;19964;-33
2022/09/29 02:07:46;;;;;;;;;;;;;;;;;;4934038;29;20359;-33
2022/09/29 02:10:11;;;;;;;;;;;;;;;;;;4911218;29;20405;-33
2022/09/29 02:12:36;;;;;;;;;;;;;;;;;;4906058;29;20423;-33
2022/09/29 02:15:01;;;;;;;;;;;;;;;;;;4909019;29;19915;-33
2022/09/29 02:17:26;;;;;;;;;;;;;;;;;;4905836;29;19919;-33
2022/09/29 02:19:51;;;;;;;;;;;;;;;;;;4910483;29;19915;-33
2022/09/29 02:22:16;;;;;;;;;;;;;;;;;;4905719;29;19971;-33
2022/09/29 02:24:42;;;;;;;;;;;;;;;;;;4905173;29;19926;-33
2022/09/29 02:27:07;;;;;;;;;;;;;;;;;;4907981;29;20037;-33
2022/09/29 02:29:32;;;;;;;;;;;;;;;;;;4903656;29;20006;-33
2022/09/29 02:32:00;;;;;;;;;;;;;;;;;;4903886;29;19915;-33
2022/09/29 02:34:25;;;;;;;;;;;;;;;;;;4904811;29;20014;-33
2022/09/29 02:36:51;;;;;;;;;;;;;;;;;;4910042;29;20332;-33
2022/09/29 02:39:16;;;;;;;;;;;;;;;;;;4906703;29;20433;-33
2022/09/29 02:41:41;;;;;;;;;;;;;;;;;;4901113;29;19924;-33
2022/09/29 02:44:06;;;;;;;;;;;;;;;;;;4904627;29;19919;-33
2022/09/29 02:46:31;;;;;;;;;;;;;;;;;;4907127;29;19979;-33
2022/09/29 02:48:56;;;;;;;;;;;;;;;;;;4909563;29;19922;-33
2022/09/29 02:51:21;;;;;;;;;;;;;;;;;;4901690;29;19958;-33
2022/09/29 02:53:47;;;;;;;;;;;;;;;;;;4908164;29;20073;-32
2022/09/29 02:56:12;;;;;;;;;;;;;;;;;;4908213;29;19910;-33
2022/09/29 02:58:37;;;;;;;;;;;;;;;;;;4905294;29;20365;-32
2022/09/29 03:01:02;;;;;;;;;;;;;;;;;;4905841;29;19915;-33
2022/09/29 03:03:27;;;;;;;;;;;;;;;;;;4904134;29;19926;-33
2022/09/29 03:05:53;;;;;;;;;;;;;;;;;;4907297;29;20251;-33
2022/09/29 03:08:18;;;;;;;;;;;;;;;;;;4903339;29;20014;-33
2022/09/29 03:10:43;;;;;;;;;;;;;;;;;;4900177;29;19923;-33
2022/09/29 03:13:09;;;;;;;;;;;;;;;;;;4903552;29;20061;-33
2022/09/29 03:15:34;;;;;;;;;;;;;;;;;;4901766;29;20254;-33
2022/09/29 03:18:01;;;;;;;;;;;;;;;;;;4904077;29;19916;-33
2022/09/29 03:20:26;;;;;;;;;;;;;;;;;;4904398;29;19920;-33
2022/09/29 03:22:52;;;;;;;;;;;;;;;;;;4901074;29;19920;-33
2022/09/29 03:25:17;;;;;;;;;;;;;;;;;;4897747;29;19923;-33
2022/09/29 03:27:43;;;;;;;;;;;;;;;;;;4898234;29;20457;-33
2022/09/29 03:30:08;;;;;;;;;;;;;;;;;;4897191;29;19953;-33
2022/09/29 03:32:33;;;;;;;;;;;;;;;;;;4896822;29;19915;-33
2022/09/29 03:34:58;;;;;;;;;;;;;;;;;;4894791;29;20010;-33
2022/09/29 03:37:23;;;;;;;;;;;;;;;;;;4900861;29;19915;-33
2022/09/29 03:39:48;;;;;;;;;;;;;;;;;;4902462;29;20297;-33
2022/09/29 03:42:14;;;;;;;;;;;;;;;;;;4902859;29;19925;-33
2022/09/29 03:44:40;;;;;;;;;;;;;;;;;;4898870;29;19926;-33
2022/09/29 03:47:05;;;;;;;;;;;;;;;;;;4904409;29;20292;-33
2022/09/29 03:49:30;;;;;;;;;;;;;;;;;;4906249;29;19919;-33
2022/09/29 03:51:55;;;;;;;;;;;;;;;;;;4908092;29;20164;-33
2022/09/29 03:54:20;;;;;;;;;;;;;;;;;;4899063;29;20013;-33
2022/09/29 03:56:45;;;;;;;;;;;;;;;;;;4903848;29;19979;-33
2022/09/29 03:59:11;;;;;;;;;;;;;;;;;;4897197;29;20994;-33
2022/09/29 04:01:38;;;;;;;;;;;;;;;;;;4900194;29;20156;-33
2022/09/29 04:04:04;;;;;;;;;;;;;;;;;;4894916;29;19919;-33
2022/09/29 04:06:29;;;;;;;;;;;;;;;;;;4902342;29;19979;-32
2022/09/29 04:08:54;;;;;;;;;;;;;;;;;;4901929;29;20002;-33
2022/09/29 04:11:19;;;;;;;;;;;;;;;;;;4897125;29;19924;-33
2022/09/29 04:13:44;;;;;;;;;;;;;;;;;;4901890;29;20524;-33
2022/09/29 04:16:10;;;;;;;;;;;;;;;;;;4900645;29;19931;-33
2022/09/29 04:18:35;;;;;;;;;;;;;;;;;;4896503;29;19972;-34
2022/09/29 04:21:00;;;;;;;;;;;;;;;;;;4899978;29;19923;-33
2022/09/29 04:23:25;;;;;;;;;;;;;;;;;;4899598;29;20407;-33
2022/09/29 04:25:50;;;;;;;;;;;;;;;;;;4902688;29;20262;-33
2022/09/29 04:28:15;;;;;;;;;;;;;;;;;;4895860;29;19922;-33
2022/09/29 04:30:41;;;;;;;;;;;;;;;;;;4901920;29;19964;-33
2022/09/29 04:33:06;;;;;;;;;;;;;;;;;;4900464;29;20504;-33
2022/09/29 04:35:31;;;;;;;;;;;;;;;;;;4893245;29;20499;-32
2022/09/29 04:37:56;;;;;;;;;;;;;;;;;;4895874;29;20295;-33
2022/09/29 04:40:21;;;;;;;;;;;;;;;;;;4895637;29;19963;-33
2022/09/29 04:42:47;;;;;;;;;;;;;;;;;;4897106;29;19916;-33
2022/09/29 04:45:12;;;;;;;;;;;;;;;;;;4898959;29;19926;-33
2022/09/29 04:47:37;;;;;;;;;;;;;;;;;;4899071;29;20364;-33
2022/09/29 04:50:02;;;;;;;;;;;;;;;;;;4899029;29;21238;-33
2022/09/29 04:52:27;;;;;;;;;;;;;;;;;;4897647;29;19923;-33
2022/09/29 04:54:52;;;;;;;;;;;;;;;;;;4898530;29;20370;-33
2022/09/29 04:57:18;;;;;;;;;;;;;;;;;;4898261;29;19919;-33
2022/09/29 04:59:43;;;;;;;;;;;;;;;;;;4896410;29;20088;-33
2022/09/29 05:02:08;;;;;;;;;;;;;;;;;;4897827;29;19924;-33
2022/09/29 05:04:33;;;;;;;;;;;;;;;;;;4898853;29;20129;-33
2022/09/29 05:06:58;;;;;;;;;;;;;;;;;;4898184;29;20282;-33
2022/09/29 05:09:23;;;;;;;;;;;;;;;;;;4895273;29;19926;-33
2022/09/29 05:11:48;;;;;;;;;;;;;;;;;;4901575;29;19929;-33
2022/09/29 05:14:14;;;;;;;;;;;;;;;;;;4899685;29;20065;-33
2022/09/29 05:16:39;;;;;;;;;;;;;;;;;;4899829;29;20061;-33
2022/09/29 05:19:04;;;;;;;;;;;;;;;;;;4897327;29;20133;-33
2022/09/29 05:21:29;;;;;;;;;;;;;;;;;;4898947;29;19912;-33
2022/09/29 05:23:54;;;;;;;;;;;;;;;;;;4893544;29;20080;-33
2022/09/29 05:26:20;;;;;;;;;;;;;;;;;;4892334;29;19916;-33
2022/09/29 05:28:45;;;;;;;;;;;;;;;;;;4900355;29;20019;-33
2022/09/29 05:31:10;;;;;;;;;;;;;;;;;;4895605;29;20349;-33
2022/09/29 05:33:35;;;;;;;;;;;;;;;;;;4896741;29;20017;-33
2022/09/29 05:36:00;;;;;;;;;;;;;;;;;;4894037;29;20159;-33
2022/09/29 05:38:25;;;;;;;;;;;;;;;;;;4896781;29;20137;-33
2022/09/29 05:40:51;;;;;;;;;;;;;;;;;;4912795;29;19927;-33
2022/09/29 05:43:16;;;;;;;;;;;;;;;;;;4915393;29;19962;-33
2022/09/29 05:45:41;;;;;;;;;;;;;;;;;;4909035;29;20369;-33
2022/09/29 05:48:07;;;;;;;;;;;;;;;;;;4894081;29;19971;-33
2022/09/29 05:50:32;;;;;;;;;;;;;;;;;;4909084;29;20011;-33
2022/09/29 05:52:57;;;;;;;;;;;;;;;;;;4907832;29;19919;-33
2022/09/29 05:55:22;;;;;;;;;;;;;;;;;;4908034;29;20277;-33
2022/09/29 05:57:48;;;;;;;;;;;;;;;;;;4901601;29;19946;-33
2022/09/29 06:00:13;;;;;;;;;;;;;;;;;;4906565;29;19954;-33
2022/09/29 06:02:38;;;;;;;;;;;;;;;;;;4909026;29;19919;-33
2022/09/29 06:05:03;;;;;;;;;;;;;;;;;;4909156;29;19923;-33
2022/09/29 06:07:29;;;;;;;;;;;;;;;;;;4902461;29;19923;-33
2022/09/29 06:09:54;;;;;;;;;;;;;;;;;;4894062;29;19945;-33
2022/09/29 06:12:19;;;;;;;;;;;;;;;;;;4909080;29;19911;-33
2022/09/29 06:14:44;;;;;;;;;;;;;;;;;;4906239;29;20038;-33
2022/09/29 06:17:09;;;;;;;;;;;;;;;;;;4912789;29;19914;-33
2022/09/29 06:19:34;;;;;;;;;;;;;;;;;;4906801;29;19919;-33
2022/09/29 06:22:00;;;;;;;;;;;;;;;;;;4908189;29;19919;-32
2022/09/29 06:24:25;;;;;;;;;;;;;;;;;;4896721;29;19953;-33
2022/09/29 06:26:50;;;;;;;;;;;;;;;;;;4904984;29;19916;-33
2022/09/29 06:29:15;;;;;;;;;;;;;;;;;;4901158;29;20355;-33
2022/09/29 06:31:40;;;;;;;;;;;;;;;;;;4900733;29;19919;-33
2022/09/29 06:34:05;;;;;;;;;;;;;;;;;;4900285;29;20468;-33
2022/09/29 06:39:14;;;;;;;;;;;;;;;;;;4898698;29;19926;-33
2022/09/29 06:41:40;;;;;;;;;;;;;;;;;;4896478;29;19923;-33
2022/09/29 06:44:05;;;;;;;;;;;;;;;;;;4904936;29;20046;-33
2022/09/29 06:46:30;;;;;;;;;;;;;;;;;;4902226;29;19941;-33
2022/09/29 06:48:55;;;;;;;;;;;;;;;;;;4902642;29;19965;-33
2022/09/29 06:51:24;;;;;;;;;;;;;;;;;;4900005;29;20019;-33
2022/09/29 06:53:49;;;;;;;;;;;;;;;;;;4899912;29;19972;-33
2022/09/29 06:56:14;;;;;;;;;;;;;;;;;;4901248;29;20334;-33
2022/09/29 06:58:39;;;;;;;;;;;;;;;;;;4900006;29;20020;-33
2022/09/29 07:01:04;;;;;;;;;;;;;;;;;;4900963;29;20333;-33
2022/09/29 07:03:30;;;;;;;;;;;;;;;;;;4901875;29;19923;-33
2022/09/29 07:05:55;;;;;;;;;;;;;;;;;;4898821;29;20159;-33
2022/09/29 07:08:20;;;;;;;;;;;;;;;;;;4900044;29;20301;-33
2022/09/29 07:10:45;;;;;;;;;;;;;;;;;;4902337;29;19919;-33
2022/09/29 07:13:10;;;;;;;;;;;;;;;;;;4899932;29;19915;-33
2022/09/29 07:15:36;;;;;;;;;;;;;;;;;;4898704;29;20006;-33
2022/09/29 07:18:02;;;;;;;;;;;;;;;;;;4900402;29;19919;-33
2022/09/29 07:20:27;;;;;;;;;;;;;;;;;;4898512;29;21344;-33
2022/09/29 07:22:52;;;;;;;;;;;;;;;;;;4896962;29;20358;-33
2022/09/29 07:25:17;;;;;;;;;;;;;;;;;;4900381;29;19919;-33
2022/09/29 07:27:45;;;;;;;;;;;;;;;;;;4902265;29;19915;-33
2022/09/29 07:30:11;;;;;;;;;;;;;;;;;;4891116;29;20374;-33
2022/09/29 07:32:36;;;;;;;;;;;;;;;;;;4903019;29;19923;-33
2022/09/29 07:35:01;;;;;;;;;;;;;;;;;;4894591;29;19992;-33
2022/09/29 07:37:26;;;;;;;;;;;;;;;;;;4901907;29;19942;-33
2022/09/29 07:39:53;;;;;;;;;;;;;;;;;;4903518;29;19919;-33
2022/09/29 07:42:18;;;;;;;;;;;;;;;;;;4897117;29;19979;-32
2022/09/29 07:44:43;;;;;;;;;;;;;;;;;;4893753;29;20381;-33
2022/09/29 07:47:08;;;;;;;;;;;;;;;;;;4897653;29;20297;-33
2022/09/29 07:49:33;;;;;;;;;;;;;;;;;;4902606;29;19929;-32
2022/09/29 07:51:59;;;;;;;;;;;;;;;;;;4893127;29;19925;-33
2022/09/29 07:54:24;;;;;;;;;;;;;;;;;;4908056;29;19923;-33
2022/09/29 07:56:49;;;;;;;;;;;;;;;;;;4903478;29;20290;-33
2022/09/29 07:59:14;;;;;;;;;;;;;;;;;;4905606;29;19923;-32
2022/09/29 08:01:39;;;;;;;;;;;;;;;;;;4901437;29;19927;-33
2022/09/29 08:04:05;;;;;;;;;;;;;;;;;;4899625;29;20026;-32
2022/09/29 08:06:30;;;;;;;;;;;;;;;;;;4903856;29;20336;-32
2022/09/29 08:08:56;;;;;;;;;;;;;;;;;;4901925;29;19942;-32
2022/09/29 08:11:21;;;;;;;;;;;;;;;;;;4895972;29;19932;-33
2022/09/29 08:13:46;;;;;;;;;;;;;;;;;;4902556;29;20440;-33
2022/09/29 08:16:11;;;;;;;;;;;;;;;;;;4903060;29;19931;-32
2022/09/29 08:18:36;;;;;;;;;;;;;;;;;;4893832;29;19923;-32
2022/09/29 08:21:02;;;;;;;;;;;;;;;;;;4898058;29;19946;-33
2022/09/29 08:23:27;;;;;;;;;;;;;;;;;;4894205;29;19927;-33
2022/09/29 08:25:52;;;;;;;;;;;;;;;;;;4899186;29;19923;-32
2022/09/29 08:28:17;;;;;;;;;;;;;;;;;;4901299;29;19991;-33
2022/09/29 08:30:42;;;;;;;;;;;;;;;;;;4904510;29;19919;-32
2022/09/29 08:33:13;;;;;;;;;;;;;;;;;;4902191;29;19958;-33
2022/09/29 08:35:39;;;;;;;;;;;;;;;;;;4898662;29;20018;-33
2022/09/29 08:38:04;;;;;;;;;;;;;;;;;;4896119;29;20017;-33
2022/09/29 08:40:29;;;;;;;;;;;;;;;;;;4896921;29;19920;-33
2022/09/29 08:42:54;;;;;;;;;;;;;;;;;;4898041;29;19926;-33
2022/09/29 08:45:19;;;;;;;;;;;;;;;;;;4900537;29;19926;-33
2022/09/29 08:47:45;;;;;;;;;;;;;;;;;;4898275;29;19916;-33
2022/09/29 08:50:10;;;;;;;;;;;;;;;;;;4897399;29;20008;-32
2022/09/29 08:52:35;;;;;;;;;;;;;;;;;;4896325;29;19919;-32
2022/09/29 08:55:00;;;;;;;;;;;;;;;;;;4899854;29;20400;-33
2022/09/29 08:57:26;;;;;;;;;;;;;;;;;;4901248;29;21307;-33
2022/09/29 08:59:51;;;;;;;;;;;;;;;;;;4897096;29;19919;-33
2022/09/29 09:02:16;;;;;;;;;;;;;;;;;;4901344;29;20417;-33
2022/09/29 09:04:41;;;;;;;;;;;;;;;;;;4900270;29;19919;-33
2022/09/29 09:07:07;;;;;;;;;;;;;;;;;;4901974;29;20491;-33
2022/09/29 09:09:32;;;;;;;;;;;;;;;;;;4892551;29;20338;-33
2022/09/29 09:11:57;;;;;;;;;;;;;;;;;;4898364;29;19920;-33
2022/09/29 09:14:22;;;;;;;;;;;;;;;;;;4890897;29;20326;-33
2022/09/29 09:16:47;;;;;;;;;;;;;;;;;;4897035;29;19920;-33
2022/09/29 09:19:12;;;;;;;;;;;;;;;;;;4896224;29;19923;-33
2022/09/29 09:21:38;;;;;;;;;;;;;;;;;;4896699;29;20510;-33
2022/09/29 09:24:03;;;;;;;;;;;;;;;;;;4900248;29;20517;-33
2022/09/29 09:26:28;;;;;;;;;;;;;;;;;;4900257;29;19927;-33
2022/09/29 09:28:53;;;;;;;;;;;;;;;;;;4902277;29;19941;-33
2022/09/29 09:31:18;;;;;;;;;;;;;;;;;;4898570;29;19938;-33
2022/09/29 09:33:43;;;;;;;;;;;;;;;;;;4903289;29;19979;-33
2022/09/29 09:36:09;;;;;;;;;;;;;;;;;;4892158;29;20010;-33
2022/09/29 09:38:34;;;;;;;;;;;;;;;;;;4894838;29;19931;-33
2022/09/29 09:40:59;;;;;;;;;;;;;;;;;;4895386;29;19926;-33
2022/09/29 09:43:24;;;;;;;;;;;;;;;;;;4900519;29;20452;-33
2022/09/29 09:45:49;;;;;;;;;;;;;;;;;;4898022;29;19919;-33
2022/09/29 09:48:14;;;;;;;;;;;;;;;;;;4897686;29;20353;-33
2022/09/29 09:50:41;;;;;;;;;;;;;;;;;;4893887;29;19955;-33
2022/09/29 09:53:07;;;;;;;;;;;;;;;;;;4897689;29;19919;-33
2022/09/29 09:55:35;;;;;;;;;;;;;;;;;;4899151;29;19916;-33
2022/09/29 09:58:01;;;;;;;;;;;;;;;;;;4894886;29;19919;-33
2022/09/29 10:00:26;;;;;;;;;;;;;;;;;;4896577;29;19925;-33
2022/09/29 10:02:51;;;;;;;;;;;;;;;;;;4894662;29;19927;-33
2022/09/29 10:05:16;;;;;;;;;;;;;;;;;;4895022;29;20022;-33
2022/09/29 10:07:42;;;;;;;;;;;;;;;;;;4893652;29;20326;-33
2022/09/29 10:10:07;;;;;;;;;;;;;;;;;;4895723;29;19950;-33
2022/09/29 10:12:32;;;;;;;;;;;;;;;;;;4899636;29;19919;-33
2022/09/29 10:14:57;;;;;;;;;;;;;;;;;;4898634;29;20067;-33
2022/09/29 10:17:22;;;;;;;;;;;;;;;;;;4901288;29;19933;-33
2022/09/29 10:19:47;;;;;;;;;;;;;;;;;;4899153;29;19920;-33
2022/09/29 10:22:13;;;;;;;;;;;;;;;;;;4897968;29;19955;-33
2022/09/29 10:24:38;;;;;;;;;;;;;;;;;;4900009;29;19919;-33
2022/09/29 10:27:03;;;;;;;;;;;;;;;;;;4900197;29;19920;-33
2022/09/29 10:29:28;;;;;;;;;;;;;;;;;;4897666;29;20291;-33
2022/09/29 10:31:53;;;;;;;;;;;;;;;;;;4896056;29;20023;-33
2022/09/29 10:34:18;;;;;;;;;;;;;;;;;;4898553;29;19971;-33
2022/09/29 10:36:43;;;;;;;;;;;;;;;;;;4898364;29;19926;-33
2022/09/29 10:39:09;;;;;;;;;;;;;;;;;;4896873;29;20067;-33
2022/09/29 10:41:34;;;;;;;;;;;;;;;;;;4896801;29;19923;-33
2022/09/29 10:43:59;;;;;;;;;;;;;;;;;;4901797;29;20363;-33
2022/09/29 10:46:24;;;;;;;;;;;;;;;;;;4898800;29;19924;-33
2022/09/29 10:48:49;;;;;;;;;;;;;;;;;;4897678;29;20414;-33
2022/09/29 10:51:15;;;;;;;;;;;;;;;;;;4899008;29;19916;-33
2022/09/29 10:53:40;;;;;;;;;;;;;;;;;;4899599;29;19931;-33
2022/09/29 10:56:05;;;;;;;;;;;;;;;;;;4896490;29;19975;-33
2022/09/29 10:58:30;;;;;;;;;;;;;;;;;;4897204;29;19930;-33
2022/09/29 11:00:56;;;;;;;;;;;;;;;;;;4898220;29;19948;-33
2022/09/29 11:03:21;;;;;;;;;;;;;;;;;;4896563;29;19931;-33
2022/09/29 11:05:46;;;;;;;;;;;;;;;;;;4897218;29;19920;-33
2022/09/29 11:08:12;;;;;;;;;;;;;;;;;;4891733;29;20010;-33
2022/09/29 11:10:37;;;;;;;;;;;;;;;;;;4892217;29;20581;-33
2022/09/29 11:13:03;;;;;;;;;;;;;;;;;;4897518;29;20246;-33
2022/09/29 11:15:28;;;;;;;;;;;;;;;;;;4902932;29;19923;-33
2022/09/29 11:17:53;;;;;;;;;;;;;;;;;;4908681;29;19982;-33
2022/09/29 11:20:18;;;;;;;;;;;;;;;;;;4900428;29;19927;-33
2022/09/29 11:22:47;;;;;;;;;;;;;;;;;;4902367;29;20339;-34
2022/09/29 11:25:13;;;;;;;;;;;;;;;;;;4903041;29;19923;-34
2022/09/29 11:27:38;;;;;;;;;;;;;;;;;;4899443;29;19923;-34
2022/09/29 11:30:03;;;;;;;;;;;;;;;;;;4913092;29;19922;-34
2022/09/29 11:32:29;;;;;;;;;;;;;;;;;;4905517;29;20429;-33
2022/09/29 11:34:54;;;;;;;;;;;;;;;;;;4909518;29;19995;-33
2022/09/29 11:37:19;;;;;;;;;;;;;;;;;;4901562;29;20310;-34
2022/09/29 11:39:46;;;;;;;;;;;;;;;;;;4914365;29;19923;-34
2022/09/29 11:42:12;;;;;;;;;;;;;;;;;;4909235;29;20001;-34
2022/09/29 11:44:37;;;;;;;;;;;;;;;;;;4904921;29;20027;-34
2022/09/29 11:47:02;;;;;;;;;;;;;;;;;;4905072;29;20416;-34
2022/09/29 11:49:27;;;;;;;;;;;;;;;;;;4900402;29;19974;-34
2022/09/29 11:51:52;;;;;;;;;;;;;;;;;;4904943;29;19949;-34
2022/09/29 11:54:18;;;;;;;;;;;;;;;;;;4902877;29;19926;-34
2022/09/29 11:56:44;;;;;;;;;;;;;;;;;;4904927;29;19919;-34
2022/09/29 11:59:09;;;;;;;;;;;;;;;;;;4900455;29;19930;-33
2022/09/29 12:01:34;;;;;;;;;;;;;;;;;;4903096;29;19930;-33
2022/09/29 12:03:59;;;;;;;;;;;;;;;;;;4901515;29;19987;-34
2022/09/29 12:06:25;;;;;;;;;;;;;;;;;;4899754;29;20876;-34
2022/09/29 12:08:52;;;;;;;;;;;;;;;;;;4907452;29;19919;-34
2022/09/29 12:11:18;;;;;;;;;;;;;;;;;;4899654;29;19930;-34
2022/09/29 12:13:43;;;;;;;;;;;;;;;;;;4904516;29;19918;-34
2022/09/29 12:16:09;;;;;;;;;;;;;;;;;;4904113;29;19928;-34
2022/09/29 12:18:34;;;;;;;;;;;;;;;;;;4907943;29;20467;-34
2022/09/29 12:20:59;;;;;;;;;;;;;;;;;;4907389;29;19971;-33
2022/09/29 12:23:24;;;;;;;;;;;;;;;;;;4901929;29;20433;-34
2022/09/29 12:25:50;;;;;;;;;;;;;;;;;;4903264;29;19945;-34
2022/09/29 12:28:15;;;;;;;;;;;;;;;;;;4905619;29;19983;-34
2022/09/29 12:30:40;;;;;;;;;;;;;;;;;;4904053;29;19923;-34
2022/09/29 12:33:05;;;;;;;;;;;;;;;;;;4907569;29;19919;-34
2022/09/29 12:35:31;;;;;;;;;;;;;;;;;;4906564;29;20302;-34
2022/09/29 12:37:56;;;;;;;;;;;;;;;;;;4906373;29;19919;-34
2022/09/29 12:40:22;;;;;;;;;;;;;;;;;;4900556;29;19919;-34
2022/09/29 12:42:47;;;;;;;;;;;;;;;;;;4911806;29;20113;-34
2022/09/29 12:45:12;;;;;;;;;;;;;;;;;;4904416;29;19944;-34
2022/09/29 12:47:37;;;;;;;;;;;;;;;;;;4901489;29;19964;-34
2022/09/29 12:50:02;;;;;;;;;;;;;;;;;;4904626;29;20215;-34
2022/09/29 12:52:28;;;;;;;;;;;;;;;;;;4900712;29;19919;-34
2022/09/29 12:54:54;;;;;;;;;;;;;;;;;;4904653;29;20369;-34
2022/09/29 12:57:19;;;;;;;;;;;;;;;;;;4899849;29;19926;-34
2022/09/29 12:59:44;;;;;;;;;;;;;;;;;;4899903;29;19935;-34
2022/09/29 13:02:10;;;;;;;;;;;;;;;;;;4905913;29;19930;-34
2022/09/29 13:04:36;;;;;;;;;;;;;;;;;;4900061;29;20320;-34
2022/09/29 13:07:01;;;;;;;;;;;;;;;;;;4903671;29;19923;-34
2022/09/29 13:09:26;;;;;;;;;;;;;;;;;;4901722;29;19926;-34
2022/09/29 13:11:52;;;;;;;;;;;;;;;;;;4902207;29;20011;-34
2022/09/29 13:14:17;;;;;;;;;;;;;;;;;;4901140;29;20381;-34
2022/09/29 13:16:42;;;;;;;;;;;;;;;;;;4896231;29;19919;-34
2022/09/29 13:19:07;;;;;;;;;;;;;;;;;;4898300;29;20308;-34
2022/09/29 13:21:32;;;;;;;;;;;;;;;;;;4899910;29;19971;-34
2022/09/29 13:23:57;;;;;;;;;;;;;;;;;;4898715;29;20320;-34
2022/09/29 13:26:23;;;;;;;;;;;;;;;;;;4898255;29;19919;-34
2022/09/29 13:28:48;;;;;;;;;;;;;;;;;;4900661;29;20290;-34
2022/09/29 13:31:13;;;;;;;;;;;;;;;;;;4904952;29;19951;-34
2022/09/29 13:33:38;;;;;;;;;;;;;;;;;;4904136;29;19919;-34
2022/09/29 13:36:03;;;;;;;;;;;;;;;;;;4906300;29;20002;-34
2022/09/29 13:38:29;;;;;;;;;;;;;;;;;;4904705;29;19923;-34
2022/09/29 13:40:54;;;;;;;;;;;;;;;;;;4907369;29;20029;-34
2022/09/29 13:43:19;;;;;;;;;;;;;;;;;;4904845;29;20304;-34
2022/09/29 13:45:45;;;;;;;;;;;;;;;;;;4902213;29;19916;-34
2022/09/29 13:48:10;;;;;;;;;;;;;;;;;;4902144;29;20289;-34
2022/09/29 13:50:35;;;;;;;;;;;;;;;;;;4894010;29;19923;-34
2022/09/29 13:53:01;;;;;;;;;;;;;;;;;;4907375;29;19923;-34
2022/09/29 13:55:26;;;;;;;;;;;;;;;;;;4903142;29;19923;-34
2022/09/29 13:57:51;;;;;;;;;;;;;;;;;;4895561;29;20278;-34
2022/09/29 14:00:16;;;;;;;;;;;;;;;;;;4906256;29;19926;-35
2022/09/29 14:02:41;;;;;;;;;;;;;;;;;;4901006;29;20167;-34
2022/09/29 14:05:07;;;;;;;;;;;;;;;;;;4908505;29;19927;-35
2022/09/29 14:07:32;;;;;;;;;;;;;;;;;;4898162;29;19919;-35
2022/09/29 14:09:57;;;;;;;;;;;;;;;;;;4907853;29;19915;-34
2022/09/29 14:12:22;;;;;;;;;;;;;;;;;;4894740;29;20465;-35
2022/09/29 14:14:47;;;;;;;;;;;;;;;;;;4901338;29;19916;-34
2022/09/29 14:17:13;;;;;;;;;;;;;;;;;;4901601;29;19920;-35
2022/09/29 14:19:38;;;;;;;;;;;;;;;;;;4901066;29;21356;-34
2022/09/29 14:22:04;;;;;;;;;;;;;;;;;;4895556;29;19915;-34
2022/09/29 14:24:30;;;;;;;;;;;;;;;;;;4897295;29;20470;-34
2022/09/29 14:26:55;;;;;;;;;;;;;;;;;;4898462;29;19919;-34
2022/09/29 14:29:20;;;;;;;;;;;;;;;;;;4894460;29;20259;-35
2022/09/29 14:31:45;;;;;;;;;;;;;;;;;;4900605;29;20576;-34
2022/09/29 14:34:11;;;;;;;;;;;;;;;;;;4895054;29;19959;-34
2022/09/29 14:36:40;;;;;;;;;;;;;;;;;;4899265;29;19973;-35
2022/09/29 14:39:05;;;;;;;;;;;;;;;;;;4897603;29;20014;-35
2022/09/29 14:41:32;;;;;;;;;;;;;;;;;;4895255;29;20338;-35
2022/09/29 14:43:58;;;;;;;;;;;;;;;;;;4895135;29;19931;-35
2022/09/29 14:51:57;;;;;;;;;;;;;;;;;;4900455;29;20285;-35
2022/09/29 14:54:22;;;;;;;;;;;;;;;;;;4894765;29;19923;-35
2022/09/29 14:56:47;;;;;;;;;;;;;;;;;;4900074;29;19916;-35
2022/09/29 14:59:13;;;;;;;;;;;;;;;;;;4897780;29;20301;-35
2022/09/29 15:01:38;;;;;;;;;;;;;;;;;;4899226;29;20010;-35
2022/09/29 15:04:03;;;;;;;;;;;;;;;;;;4900113;29;19919;-34
2022/09/29 15:06:29;;;;;;;;;;;;;;;;;;4897035;29;19919;-35
2022/09/29 15:08:55;;;;;;;;;;;;;;;;;;4902038;29;20047;-35
2022/09/29 15:11:20;;;;;;;;;;;;;;;;;;4898772;29;20381;-35
2022/09/29 15:13:45;;;;;;;;;;;;;;;;;;4903336;29;20381;-35
2022/09/29 15:16:10;;;;;;;;;;;;;;;;;;4899377;29;20610;-35
2022/09/29 15:18:36;;;;;;;;;;;;;;;;;;4899092;29;19915;-35
2022/09/29 15:21:02;;;;;;;;;;;;;;;;;;4894543;29;19981;-34
2022/09/29 15:23:27;;;;;;;;;;;;;;;;;;4895984;29;20437;-35
2022/09/29 15:25:52;;;;;;;;;;;;;;;;;;4899893;29;19916;-35
2022/09/29 15:28:17;;;;;;;;;;;;;;;;;;4895444;29;19919;-35
2022/09/29 15:30:42;;;;;;;;;;;;;;;;;;4894676;29;19920;-35
2022/09/29 15:33:08;;;;;;;;;;;;;;;;;;4901825;29;19916;-34
2022/09/29 15:35:34;;;;;;;;;;;;;;;;;;4896851;29;19920;-34
2022/09/29 15:37:59;;;;;;;;;;;;;;;;;;4902382;29;20009;-35
2022/09/29 15:40:24;;;;;;;;;;;;;;;;;;4900607;29;19924;-35
2022/09/29 15:42:51;;;;;;;;;;;;;;;;;;4903875;29;19915;-35
2022/09/29 15:45:17;;;;;;;;;;;;;;;;;;4896756;29;19923;-34
2022/09/29 15:47:42;;;;;;;;;;;;;;;;;;4902730;29;20336;-35
2022/09/29 15:50:07;;;;;;;;;;;;;;;;;;4895153;29;19981;-35
2022/09/29 15:52:33;;;;;;;;;;;;;;;;;;4906374;29;19983;-34
2022/09/29 15:54:58;;;;;;;;;;;;;;;;;;4900558;29;19915;-35
2022/09/29 15:57:42;;;;;;;;;;;;;;;;;;4896091;29;19919;-35
2022/09/29 16:00:07;;;;;;;;;;;;;;;;;;4897381;29;19930;-35
2022/09/29 16:02:33;;;;;;;;;;;;;;;;;;4898427;29;20068;-35
2022/09/29 16:04:58;;;;;;;;;;;;;;;;;;4900531;29;19919;-34
2022/09/29 16:07:23;;;;;;;;;;;;;;;;;;4894652;29;20437;-35
2022/09/29 16:09:48;;;;;;;;;;;;;;;;;;4899446;29;20063;-35
2022/09/29 16:12:15;;;;;;;;;;;;;;;;;;4896564;29;20146;-35
2022/09/29 16:14:40;;;;;;;;;;;;;;;;;;4898079;29;19919;-34
2022/09/29 16:17:05;;;;;;;;;;;;;;;;;;4899529;29;20005;-35
2022/09/29 16:19:30;;;;;;;;;;;;;;;;;;4893624;29;20386;-35
2022/09/29 16:21:55;;;;;;;;;;;;;;;;;;4897342;29;20006;-35
2022/09/29 16:24:20;;;;;;;;;;;;;;;;;;4891163;29;20092;-35
2022/09/29 16:26:46;;;;;;;;;;;;;;;;;;4896898;29;20422;-35
2022/09/29 16:29:13;;;;;;;;;;;;;;;;;;4896081;29;20014;-35
2022/09/29 16:31:41;;;;;;;;;;;;;;;;;;4898722;29;19915;-35
2022/09/29 16:34:07;;;;;;;;;;;;;;;;;;4894985;29;19998;-34
2022/09/29 16:36:35;;;;;;;;;;;;;;;;;;4897442;29;19933;-34
2022/09/29 16:39:00;;;;;;;;;;;;;;;;;;4895298;29;19916;-34
2022/09/29 16:41:36;;;;;;;;;;;;;;;;;;4897171;29;19955;-34